createdAt,value
2023-05-19T00:07:45.964Z,10.40
2023-05-19T00:27:48.915Z,10.64
2023-05-19T00:47:59.343Z,10.54
2023-05-19T01:08:02.578Z,10.19
2023-05-19T01:28:05.917Z,10.82
2023-05-19T01:48:11.022Z,11.04
2023-05-19T02:08:15.606Z,11.02
2023-05-19T02:28:18.960Z,10.77
2023-05-19T02:48:21.778Z,10.74
2023-05-19T03:08:25.292Z,10.78
2023-05-19T03:28:31.209Z,10.89
2023-05-19T03:48:34.242Z,10.99
2023-05-19T04:08:37.996Z,11.54
2023-05-19T04:28:43.761Z,11.63
2023-05-19T04:48:47.317Z,11.23
2023-05-19T05:08:50.090Z,11.53
2023-05-19T05:28:53.501Z,12.36
2023-05-19T05:48:56.650Z,13.02
2023-05-19T06:08:59.681Z,13.13
2023-05-19T06:29:02.735Z,13.08
2023-05-19T06:49:06.050Z,13.74
2023-05-19T07:09:10.255Z,14.56
2023-05-19T07:29:13.578Z,15.42
2023-05-19T07:49:16.636Z,15.57
2023-05-19T08:09:20.596Z,15.38
2023-05-19T08:29:23.298Z,15.57
2023-05-19T08:49:28.710Z,15.74
2023-05-19T09:09:31.617Z,15.81
2023-05-19T09:29:34.440Z,16.74
2023-05-19T09:49:53.918Z,16.89
2023-05-19T10:09:58.584Z,16.76
2023-05-19T10:30:05.646Z,17.40
2023-05-19T10:50:11.396Z,18.03
2023-05-19T11:10:14.218Z,19.38
2023-05-19T11:30:21.275Z,19.87
2023-05-19T11:50:24.285Z,18.16
2023-05-19T12:10:26.979Z,19.59
2023-05-19T12:30:33.654Z,19.72
2023-05-19T12:50:37.635Z,18.94
2023-05-19T13:10:40.450Z,19.29
2023-05-19T13:30:43.326Z,17.95
2023-05-19T13:50:46.279Z,18.79
2023-05-19T14:10:49.005Z,17.97
2023-05-19T14:30:52.482Z,17.98
2023-05-19T14:50:55.177Z,17.40
2023-05-19T15:10:57.861Z,16.77
2023-05-19T15:31:00.679Z,16.69
2023-05-19T15:51:03.680Z,15.81
2023-05-19T16:11:06.728Z,15.49
2023-05-19T16:31:09.523Z,15.55
2023-05-19T16:51:12.271Z,15.36
2023-05-19T17:11:15.816Z,15.53
2023-05-19T17:31:18.497Z,14.79
2023-05-19T17:51:21.200Z,15.43
2023-05-19T18:11:24.434Z,15.37
2023-05-19T18:31:27.400Z,15.21
2023-05-19T18:51:30.596Z,14.79
2023-05-19T19:11:33.401Z,15.19
2023-05-19T19:31:36.198Z,14.53
2023-05-19T19:51:39.211Z,14.87
2023-05-19T20:11:42.288Z,14.56
2023-05-19T20:31:47.777Z,14.79
2023-05-19T20:51:50.738Z,14.35
2023-05-19T21:11:57.202Z,14.30
2023-05-19T21:32:01.142Z,14.17
2023-05-19T21:52:03.942Z,13.41
2023-05-19T22:12:06.721Z,12.73
2023-05-19T22:32:13.110Z,12.39
2023-05-19T22:52:15.804Z,12.82
2023-05-19T23:12:18.567Z,13.02
2023-05-19T23:32:21.318Z,12.86
2023-05-19T23:52:24.325Z,13.19
